No particular awareness of the weather is required.    There are no Weather-warnings


Meteo18 Weather Cam more information Meteo18 Weather Cam


Thunder radar more information blitzortung!


Rain radar more information rain snow radar


Visit our other weather sites:

Template documentation
and downloads

And another site



Weather Underground History page Text

Daily Summary for September 14, 2016 Units:  Metric    English   Both
« Previous Day
Next Day »
Daily Weekly Monthly Yearly Custom
  High: Low: Average:
Temperature: 24.7 °C 14.2 °C 19.5 °C
Dew Point: 16.9 °C 12.1 °C 14.2 °C
Humidity: 93 % 47 % 73 %
Wind Speed: 17.7 km/h 0.0 km/h 3.2 km/h
Wind Gust: 24.1 km/h - -
Wind:- - SSE
Pressure: 1012.4 hPa 1007.3 hPa -
Precipitation: 12.2 mm    
Historical Graphs
 
 
Tabular Data for September 14, 2016
Time Temperature Dew Point Pressure Wind Wind Speed Wind Gust Humidity Rainfall Rate (Hourly)
00:02 24.7 °C 12.6 °C 1007.7 hPa SE 1.6 km/h 12.9 km/h 47 % 0.0 mm
00:12 24.3 °C 12.6 °C 1007.7 hPa SW 3.2 km/h 11.3 km/h 48 % 0.0 mm
00:17 24.2 °C 12.5 °C 1007.3 hPa SSE 1.6 km/h 11.3 km/h 48 % 0.0 mm
00:22 24.1 °C 12.7 °C 1007.3 hPa East 3.2 km/h 9.7 km/h 49 % 0.0 mm
00:27 23.9 °C 12.5 °C 1007.7 hPa SSE 3.2 km/h 8.0 km/h 49 % 0.0 mm
00:32 23.7 °C 12.7 °C 1007.7 hPa SE 1.6 km/h 8.0 km/h 50 % 0.0 mm
00:37 23.5 °C 12.8 °C 1008.4 hPa WSW 11.3 km/h 11.3 km/h 51 % 0.0 mm
00:52 23.2 °C 14.2 °C 1008.7 hPa West 6.4 km/h 24.1 km/h 57 % 0.0 mm
00:57 22.8 °C 14.4 °C 1008.7 hPa South 4.8 km/h 19.3 km/h 59 % 0.0 mm
01:02 22.6 °C 14.7 °C 1008.7 hPa West 11.3 km/h 19.3 km/h 61 % 0.0 mm
01:07 22.3 °C 14.7 °C 1008.7 hPa SW 14.5 km/h 20.9 km/h 62 % 0.0 mm
01:17 21.9 °C 14.5 °C 1008.7 hPa West 11.3 km/h 19.3 km/h 63 % 0.0 mm
01:22 21.7 °C 14.6 °C 1008.7 hPa SW 9.7 km/h 19.3 km/h 64 % 0.0 mm
01:27 21.6 °C 14.5 °C 1008.7 hPa West 3.2 km/h 17.7 km/h 64 % 0.0 mm
01:32 21.4 °C 14.5 °C 1009.0 hPa SW 6.4 km/h 14.5 km/h 65 % 0.0 mm
01:42 20.9 °C 14.3 °C 1009.0 hPa WSW 1.6 km/h 12.9 km/h 66 % 0.0 mm
01:52 20.6 °C 14.5 °C 1009.0 hPa SSW 4.8 km/h 14.5 km/h 68 % 0.0 mm
01:57 20.4 °C 14.3 °C 1009.0 hPa WNW 9.7 km/h 14.5 km/h 68 % 0.0 mm
02:02 20.3 °C 14.4 °C 1009.4 hPa WSW 8.0 km/h 14.5 km/h 69 % 0.0 mm
02:07 20.2 °C 14.3 °C 1009.4 hPa South 6.4 km/h 14.5 km/h 69 % 0.0 mm
02:12 20.0 °C 14.4 °C 1009.4 hPa SW 6.4 km/h 14.5 km/h 70 % 0.0 mm
02:22 19.7 °C 14.1 °C 1009.4 hPa SW 4.8 km/h 11.3 km/h 70 % 0.0 mm
02:32 19.4 °C 14.2 °C 1009.4 hPa SSW 3.2 km/h 11.3 km/h 72 % 0.0 mm
02:37 19.3 °C 14.3 °C 1009.4 hPa SSW 3.2 km/h 11.3 km/h 73 % 0.0 mm
02:52 18.9 °C 14.2 °C 1009.7 hPa SW 4.8 km/h 9.7 km/h 74 % 0.0 mm
03:02 18.5 °C 13.8 °C 1009.7 hPa SSW 6.4 km/h 9.7 km/h 74 % 0.0 mm
03:12 18.2 °C 14.1 °C 1010.0 hPa SSW 3.2 km/h 9.7 km/h 77 % 0.0 mm
03:17 18.1 °C 14.2 °C 1010.0 hPa SSW 3.2 km/h 11.3 km/h 78 % 0.0 mm
03:22 17.9 °C 14.0 °C 1010.0 hPa SSW 3.2 km/h 11.3 km/h 78 % 0.0 mm
03:32 17.7 °C 14.0 °C 1010.0 hPa SSW 1.6 km/h 8.0 km/h 79 % 0.0 mm
03:42 17.6 °C 14.1 °C 1010.0 hPa SW 3.2 km/h 8.0 km/h 80 % 0.0 mm
03:47 17.4 °C 13.9 °C 1010.0 hPa SSW 4.8 km/h 8.0 km/h 80 % 0.0 mm
03:52 17.3 °C 13.8 °C 1010.0 hPa SSW 4.8 km/h 9.7 km/h 80 % 0.0 mm
03:57 17.2 °C 13.9 °C 1010.4 hPa SSW 4.8 km/h 9.7 km/h 81 % 0.0 mm
04:07 17.1 °C 13.8 °C 1010.4 hPa SSW 3.2 km/h 8.0 km/h 81 % 0.0 mm
04:12 16.9 °C 13.8 °C 1010.4 hPa SSW 4.8 km/h 8.0 km/h 82 % 0.0 mm
04:17 16.8 °C 13.7 °C 1010.0 hPa SW 3.2 km/h 8.0 km/h 82 % 0.0 mm
04:22 16.7 °C 13.6 °C 1010.0 hPa Calm   6.4 km/h 82 % 0.0 mm
04:32 16.6 °C 13.7 °C 1010.0 hPa Calm   4.8 km/h 83 % 0.0 mm
04:37 16.6 °C 13.7 °C 1010.0 hPa Calm   1.6 km/h 83 % 0.0 mm
04:42 16.4 °C 13.5 °C 1010.0 hPa Calm   1.6 km/h 83 % 0.0 mm
04:52 16.2 °C 13.3 °C 1010.4 hPa Calm   1.6 km/h 83 % 0.0 mm
04:57 16.0 °C 13.3 °C 1010.0 hPa Calm   1.6 km/h 84 % 0.0 mm
05:02 15.8 °C 13.3 °C 1010.0 hPa SW 1.6 km/h 1.6 km/h 85 % 0.0 mm
05:12 15.7 °C 13.4 °C 1010.0 hPa Calm   3.2 km/h 86 % 0.0 mm
05:17 15.7 °C 13.2 °C 1010.0 hPa Calm   3.2 km/h 85 % 0.0 mm
05:22 15.6 °C 13.1 °C 1010.0 hPa Calm   3.2 km/h 85 % 0.0 mm
05:27 15.6 °C 13.3 °C 1010.0 hPa Calm   1.6 km/h 86 % 0.0 mm
05:32 15.4 °C 12.9 °C 1010.0 hPa Calm   1.6 km/h 85 % 0.0 mm
05:37 15.4 °C 12.9 °C 1010.0 hPa Calm   1.6 km/h 85 % 0.0 mm
05:42 15.4 °C 13.1 °C 1010.4 hPa Calm   1.6 km/h 86 % 0.0 mm
05:47 15.4 °C 13.1 °C 1010.4 hPa Calm   1.6 km/h 86 % 0.0 mm
05:52 15.4 °C 13.1 °C 1010.4 hPa Calm   1.6 km/h 86 % 0.0 mm
06:02 15.4 °C 13.1 °C 1010.0 hPa Calm   1.6 km/h 86 % 0.0 mm
06:07 15.4 °C 13.1 °C 1010.0 hPa Calm   1.6 km/h 86 % 0.0 mm
06:12 15.2 °C 12.7 °C 1010.0 hPa ENE 1.6 km/h 1.6 km/h 85 % 0.0 mm
06:17 15.1 °C 12.8 °C 1010.0 hPa ENE 1.6 km/h 1.6 km/h 86 % 0.0 mm
06:22 15.0 °C 12.9 °C 1010.0 hPa Calm   3.2 km/h 87 % 0.0 mm
06:27 14.9 °C 12.8 °C 1010.0 hPa Calm   3.2 km/h 87 % 0.0 mm
06:32 14.8 °C 12.7 °C 1010.0 hPa Calm   1.6 km/h 87 % 0.0 mm
06:37 14.7 °C 12.4 °C 1010.4 hPa Calm   1.6 km/h 86 % 0.0 mm
06:42 14.6 °C 12.5 °C 1010.4 hPa Calm     87 % 0.0 mm
06:47 14.7 °C 12.7 °C 1010.4 hPa Calm     88 % 0.0 mm
06:52 14.7 °C 12.7 °C 1010.4 hPa Calm     88 % 0.0 mm
06:57 14.5 °C 12.2 °C 1010.4 hPa Calm     86 % 0.0 mm
07:02 14.4 °C 12.3 °C 1010.4 hPa Calm     87 % 0.0 mm
07:07 14.4 °C 12.4 °C 1010.4 hPa Calm     88 % 0.0 mm
07:12 14.3 °C 12.3 °C 1010.4 hPa Calm     88 % 0.0 mm
07:17 14.3 °C 12.3 °C 1010.7 hPa Calm     88 % 0.0 mm
07:27 14.3 °C 12.3 °C 1010.7 hPa Calm     88 % 0.0 mm
07:32 14.3 °C 12.3 °C 1010.7 hPa Calm     88 % 0.0 mm
07:37 14.2 °C 12.1 °C 1010.7 hPa Calm     87 % 0.0 mm
07:42 14.3 °C 12.5 °C 1010.4 hPa Calm     89 % 0.0 mm
07:47 14.3 °C 12.3 °C 1010.4 hPa Calm     88 % 0.0 mm
07:52 14.4 °C 12.4 °C 1010.4 hPa Calm     88 % 0.0 mm
07:57 14.4 °C 12.4 °C 1010.7 hPa Calm     88 % 0.0 mm
08:02 14.4 °C 12.4 °C 1010.7 hPa Calm   3.2 km/h 88 % 0.0 mm
08:07 14.5 °C 12.5 °C 1011.1 hPa Calm   3.2 km/h 88 % 0.0 mm
08:12 14.6 °C 12.6 °C 1011.1 hPa WNW 1.6 km/h 3.2 km/h 88 % 0.0 mm
08:17 14.7 °C 12.7 °C 1011.1 hPa WNW 1.6 km/h 1.6 km/h 88 % 0.0 mm
08:27 14.9 °C 12.9 °C 1011.1 hPa West 1.6 km/h 4.8 km/h 88 % 0.0 mm
08:37 15.7 °C 13.4 °C 1011.1 hPa Calm   6.4 km/h 86 % 0.0 mm
08:42 16.1 °C 13.4 °C 1011.1 hPa Calm   6.4 km/h 84 % 0.0 mm
08:47 16.4 °C 13.5 °C 1011.1 hPa Calm   4.8 km/h 83 % 0.0 mm
08:57 17.1 °C 13.8 °C 1011.1 hPa Calm   1.6 km/h 81 % 0.0 mm
09:02 17.3 °C 13.8 °C 1011.1 hPa SSW 3.2 km/h 3.2 km/h 80 % 0.0 mm
09:07 17.5 °C 13.8 °C 1011.4 hPa West 6.4 km/h 6.4 km/h 79 % 0.0 mm
09:12 17.6 °C 13.7 °C 1011.4 hPa SW 3.2 km/h 8.0 km/h 78 % 0.0 mm
09:17 17.7 °C 13.8 °C 1011.4 hPa WSW 3.2 km/h 9.7 km/h 78 % 0.0 mm
09:27 18.6 °C 13.9 °C 1011.1 hPa West 4.8 km/h 9.7 km/h 74 % 0.0 mm
09:32 18.9 °C 14.0 °C 1011.1 hPa West 6.4 km/h 9.7 km/h 73 % 0.0 mm
09:37 19.1 °C 13.9 °C 1011.4 hPa WSW 1.6 km/h 9.7 km/h 72 % 0.0 mm
09:42 19.3 °C 13.9 °C 1011.4 hPa WNW 3.2 km/h 9.7 km/h 71 % 0.0 mm
09:47 19.4 °C 13.6 °C 1011.4 hPa Calm   9.7 km/h 69 % 0.0 mm
09:52 19.7 °C 13.9 °C 1011.4 hPa Calm   8.0 km/h 69 % 0.0 mm
09:57 20.1 °C 13.8 °C 1011.4 hPa Calm   8.0 km/h 67 % 0.0 mm
10:02 20.4 °C 14.1 °C 1011.7 hPa Calm   6.4 km/h 67 % 0.0 mm
10:12 20.8 °C 13.5 °C 1011.7 hPa WSW 4.8 km/h 4.8 km/h 63 % 0.0 mm
10:17 21.1 °C 13.3 °C 1011.4 hPa WSW 3.2 km/h 11.3 km/h 61 % 0.0 mm
10:27 21.2 °C 13.1 °C 1011.4 hPa WSW 4.8 km/h 12.9 km/h 60 % 0.0 mm
10:32 21.2 °C 12.9 °C 1011.7 hPa WSW 4.8 km/h 12.9 km/h 59 % 0.0 mm
10:42 21.2 °C 12.9 °C 1011.7 hPa SW 3.2 km/h 9.7 km/h 59 % 0.0 mm
10:47 21.2 °C 12.9 °C 1011.7 hPa WSW 3.2 km/h 9.7 km/h 59 % 0.0 mm
10:57 21.3 °C 13.5 °C 1011.7 hPa WSW 3.2 km/h 9.7 km/h 61 % 0.0 mm
11:02 21.1 °C 13.3 °C 1012.1 hPa SW 4.8 km/h 9.7 km/h 61 % 0.0 mm
11:07 21.3 °C 14.0 °C 1012.1 hPa SW 3.2 km/h 11.3 km/h 63 % 0.0 mm
11:12 21.1 °C 13.5 °C 1012.1 hPa SW 3.2 km/h 11.3 km/h 62 % 0.0 mm
11:22 21.1 °C 13.5 °C 1012.1 hPa West 6.4 km/h 11.3 km/h 62 % 0.0 mm
11:27 20.9 °C 13.3 °C 1012.1 hPa Calm   9.7 km/h 62 % 0.0 mm
11:32 20.9 °C 13.6 °C 1012.1 hPa WNW 3.2 km/h 11.3 km/h 63 % 0.0 mm
11:37 20.9 °C 13.6 °C 1012.4 hPa WSW 3.2 km/h 11.3 km/h 63 % 0.0 mm
11:42 20.9 °C 13.3 °C 1012.1 hPa WSW 3.2 km/h 11.3 km/h 62 % 0.0 mm
11:47 20.9 °C 13.3 °C 1012.1 hPa West 4.8 km/h 9.7 km/h 62 % 0.0 mm
11:52 20.9 °C 13.6 °C 1012.1 hPa SSW 4.8 km/h 8.0 km/h 63 % 0.0 mm
11:57 20.9 °C 13.3 °C 1012.1 hPa Calm   8.0 km/h 62 % 0.0 mm
12:02 21.2 °C 13.6 °C 1012.1 hPa West 6.4 km/h 9.7 km/h 62 % 0.0 mm
12:12 21.2 °C 13.4 °C 1012.1 hPa Calm   9.7 km/h 61 % 0.0 mm
12:17 21.1 °C 13.3 °C 1012.1 hPa West 4.8 km/h 9.7 km/h 61 % 0.0 mm
12:22 21.3 °C 13.5 °C 1012.1 hPa West 4.8 km/h 9.7 km/h 61 % 0.0 mm
12:32 21.3 °C 13.5 °C 1012.1 hPa West 3.2 km/h 9.7 km/h 61 % 0.0 mm
12:42 21.4 °C 13.3 °C 1012.1 hPa West 3.2 km/h 9.7 km/h 60 % 0.0 mm
12:47 21.5 °C 13.7 °C 1011.7 hPa Calm   9.7 km/h 61 % 0.0 mm
12:52 21.6 °C 13.2 °C 1011.7 hPa West 3.2 km/h 9.7 km/h 59 % 0.0 mm
12:57 21.5 °C 13.1 °C 1011.7 hPa SSW 1.6 km/h 11.3 km/h 59 % 0.0 mm
13:02 21.7 °C 13.3 °C 1011.7 hPa Calm   11.3 km/h 59 % 0.0 mm
13:07 21.8 °C 13.4 °C 1011.7 hPa Calm   9.7 km/h 59 % 0.0 mm
13:12 22.0 °C 13.4 °C 1011.7 hPa NNW 3.2 km/h 6.4 km/h 58 % 0.0 mm
13:17 22.2 °C 13.5 °C 1011.4 hPa NNE 4.8 km/h 6.4 km/h 58 % 0.0 mm
13:22 22.1 °C 13.4 °C 1011.7 hPa North 3.2 km/h 8.0 km/h 58 % 0.0 mm
13:27 22.0 °C 13.4 °C 1011.7 hPa ENE 1.6 km/h 8.0 km/h 58 % 0.0 mm
13:32 21.9 °C 13.3 °C 1011.4 hPa North 3.2 km/h 8.0 km/h 58 % 0.0 mm
13:38 22.2 °C 13.5 °C 1011.4 hPa Calm   8.0 km/h 58 % 0.0 mm
13:47 22.2 °C 13.3 °C 1011.4 hPa West 1.6 km/h 3.2 km/h 57 % 0.0 mm
13:52 22.3 °C 13.6 °C 1011.4 hPa Calm   1.6 km/h 58 % 0.0 mm
14:02 22.7 °C 13.5 °C 1011.4 hPa Calm   3.2 km/h 56 % 0.0 mm
14:12 22.7 °C 13.7 °C 1011.4 hPa Calm   6.4 km/h 57 % 0.0 mm
14:17 22.7 °C 13.7 °C 1011.4 hPa ENE 1.6 km/h 6.4 km/h 57 % 0.0 mm
14:22 22.6 °C 13.6 °C 1011.4 hPa ENE 3.2 km/h 4.8 km/h 57 % 0.0 mm
14:32 22.7 °C 13.7 °C 1011.1 hPa Calm   4.8 km/h 57 % 0.0 mm
14:37 22.8 °C 13.8 °C 1011.1 hPa Calm   4.8 km/h 57 % 0.0 mm
14:42 23.1 °C 14.1 °C 1011.1 hPa ENE 1.6 km/h 4.8 km/h 57 % 0.0 mm
14:47 23.1 °C 13.8 °C 1011.1 hPa Calm   4.8 km/h 56 % 0.0 mm
14:52 23.0 °C 14.0 °C 1011.1 hPa Calm   6.4 km/h 57 % 0.0 mm
14:57 23.1 °C 13.8 °C 1011.1 hPa ENE 6.4 km/h 6.4 km/h 56 % 0.0 mm
15:02 23.1 °C 13.8 °C 1010.7 hPa ENE 3.2 km/h 11.3 km/h 56 % 0.0 mm
15:07 23.2 °C 13.9 °C 1010.7 hPa East 4.8 km/h 11.3 km/h 56 % 0.0 mm
15:12 23.2 °C 13.9 °C 1010.7 hPa East 1.6 km/h 11.3 km/h 56 % 0.0 mm
15:17 23.2 °C 13.9 °C 1010.4 hPa ENE 4.8 km/h 6.4 km/h 56 % 0.0 mm
15:22 23.2 °C 14.2 °C 1010.7 hPa ENE 1.6 km/h 8.0 km/h 57 % 0.0 mm
15:27 23.3 °C 14.0 °C 1010.7 hPa East 3.2 km/h 8.0 km/h 56 % 0.0 mm
15:32 23.3 °C 14.0 °C 1010.7 hPa ENE 9.7 km/h 9.7 km/h 56 % 0.0 mm
15:37 23.2 °C 14.2 °C 1010.4 hPa ESE 1.6 km/h 9.7 km/h 57 % 0.0 mm
15:42 23.3 °C 14.3 °C 1010.4 hPa ENE 3.2 km/h 9.7 km/h 57 % 0.0 mm
15:47 23.3 °C 14.0 °C 1010.7 hPa ENE 4.8 km/h 9.7 km/h 56 % 0.0 mm
15:52 23.3 °C 14.3 °C 1010.7 hPa East 1.6 km/h 8.0 km/h 57 % 0.0 mm
15:57 23.4 °C 14.4 °C 1010.7 hPa ENE 3.2 km/h 8.0 km/h 57 % 0.0 mm
16:02 23.4 °C 14.1 °C 1010.7 hPa Calm   8.0 km/h 56 % 0.0 mm
16:07 23.4 °C 14.1 °C 1010.7 hPa ENE 4.8 km/h 8.0 km/h 56 % 0.0 mm
16:12 23.4 °C 14.1 °C 1010.7 hPa Calm   6.4 km/h 56 % 0.0 mm
16:17 23.4 °C 14.1 °C 1010.7 hPa ENE 3.2 km/h 6.4 km/h 56 % 0.0 mm
16:22 23.5 °C 14.2 °C 1010.4 hPa Calm   6.4 km/h 56 % 0.0 mm
16:27 23.6 °C 14.0 °C 1010.4 hPa ENE 1.6 km/h 6.4 km/h 55 % 0.0 mm
16:32 23.7 °C 14.1 °C 1010.0 hPa Calm   4.8 km/h 55 % 0.0 mm
16:37 23.7 °C 14.1 °C 1010.0 hPa NE 3.2 km/h 6.4 km/h 55 % 0.0 mm
16:42 23.7 °C 14.1 °C 1010.0 hPa Calm   6.4 km/h 55 % 0.0 mm
16:52 23.8 °C 13.9 °C 1010.0 hPa ENE 1.6 km/h 3.2 km/h 54 % 0.0 mm
16:57 23.8 °C 13.9 °C 1010.0 hPa Calm   3.2 km/h 54 % 0.0 mm
17:02 23.8 °C 13.9 °C 1009.7 hPa North 4.8 km/h 4.8 km/h 54 % 0.0 mm
17:12 23.7 °C 13.8 °C 1009.7 hPa ENE 1.6 km/h 4.8 km/h 54 % 0.0 mm
17:17 23.7 °C 13.8 °C 1009.7 hPa Calm   4.8 km/h 54 % 0.0 mm
17:22 23.7 °C 13.8 °C 1009.7 hPa NNE 4.8 km/h 4.8 km/h 54 % 0.0 mm
17:27 23.7 °C 13.8 °C 1009.7 hPa Calm   4.8 km/h 54 % 0.0 mm
17:32 23.7 °C 13.8 °C 1009.7 hPa NNE 3.2 km/h 4.8 km/h 54 % 0.0 mm
17:37 23.7 °C 13.8 °C 1009.7 hPa Calm   4.8 km/h 54 % 0.0 mm
17:42 23.7 °C 13.8 °C 1009.7 hPa Calm   3.2 km/h 54 % 0.0 mm
17:47 23.6 °C 14.0 °C 1009.4 hPa Calm   3.2 km/h 55 % 0.0 mm
17:52 23.6 °C 13.7 °C 1009.7 hPa Calm   3.2 km/h 54 % 0.0 mm
17:57 23.5 °C 13.7 °C 1009.7 hPa Calm   3.2 km/h 54 % 0.0 mm
18:02 23.4 °C 14.1 °C 1009.7 hPa Calm   3.2 km/h 56 % 0.0 mm
18:07 23.2 °C 14.2 °C 1010.0 hPa WSW 6.4 km/h 11.3 km/h 57 % 0.0 mm
18:12 22.1 °C 15.4 °C 1009.7 hPa SW 9.7 km/h 11.3 km/h 66 % 1.3 mm
18:17 20.9 °C 15.9 °C 1009.7 hPa West 4.8 km/h 11.3 km/h 73 % 1.5 mm
18:22 20.2 °C 16.4 °C 1009.7 hPa WNW 3.2 km/h 12.9 km/h 79 % 1.5 mm
18:32 19.5 °C 16.5 °C 1009.7 hPa West 1.6 km/h 11.3 km/h 83 % 2.3 mm
18:37 19.2 °C 16.4 °C 1009.7 hPa West 3.2 km/h 6.4 km/h 84 % 2.8 mm
18:42 19.1 °C 16.7 °C 1010.0 hPa West 3.2 km/h 6.4 km/h 86 % 2.8 mm
18:47 19.0 °C 16.0 °C 1010.0 hPa West 8.0 km/h 8.0 km/h 83 % 3.0 mm
18:52 19.1 °C 16.0 °C 1010.0 hPa South 3.2 km/h 9.7 km/h 82 % 3.0 mm
18:57 19.2 °C 16.1 °C 1010.0 hPa SSE 1.6 km/h 14.5 km/h 82 % 3.8 mm
19:02 19.0 °C 16.2 °C 1010.4 hPa Calm   14.5 km/h 84 % 5.1 mm
19:12 18.6 °C 16.4 °C 1010.0 hPa NNE 3.2 km/h 6.4 km/h 87 % 5.1 mm
19:17 18.4 °C 16.6 °C 1010.0 hPa Calm   6.4 km/h 89 % 5.3 mm
19:22 18.3 °C 16.6 °C 1009.7 hPa Calm   6.4 km/h 90 % 5.1 mm
19:27 18.2 °C 16.5 °C 1009.7 hPa NNE 4.8 km/h 4.8 km/h 90 % 4.8 mm
19:32 18.1 °C 16.4 °C 1009.7 hPa ENE 1.6 km/h 8.0 km/h 90 % 4.8 mm
19:37 18.0 °C 16.5 °C 1009.7 hPa NE 1.6 km/h 8.0 km/h 91 % 4.8 mm
19:42 17.9 °C 16.4 °C 1009.7 hPa NE 4.8 km/h 11.3 km/h 91 % 5.1 mm
19:47 17.9 °C 16.4 °C 1009.7 hPa ENE 4.8 km/h 11.3 km/h 91 % 5.1 mm
19:52 17.9 °C 16.4 °C 1009.7 hPa NNE 3.2 km/h 6.4 km/h 91 % 5.1 mm
20:02 18.1 °C 16.6 °C 1009.7 hPa ENE 8.0 km/h 11.3 km/h 91 % 4.1 mm
20:07 18.1 °C 16.4 °C 1009.7 hPa NNE 4.8 km/h 19.3 km/h 90 % 3.3 mm
20:12 18.1 °C 16.6 °C 1009.7 hPa East 8.0 km/h 19.3 km/h 91 % 2.3 mm
20:17 18.1 °C 16.6 °C 1009.4 hPa North 3.2 km/h 19.3 km/h 91 % 2.3 mm
20:22 18.0 °C 16.5 °C 1009.4 hPa NNE 3.2 km/h 14.5 km/h 91 % 2.0 mm
20:32 17.8 °C 16.5 °C 1009.4 hPa ENE 1.6 km/h 8.0 km/h 92 % 1.8 mm
20:37 17.8 °C 16.5 °C 1009.7 hPa ENE 3.2 km/h 6.4 km/h 92 % 1.8 mm
20:42 17.7 °C 16.6 °C 1009.4 hPa ENE 4.8 km/h 14.5 km/h 93 % 1.5 mm
20:47 17.7 °C 16.6 °C 1009.4 hPa ENE 17.7 km/h 17.7 km/h 93 % 1.3 mm
20:52 17.8 °C 16.7 °C 1009.4 hPa ENE 11.3 km/h 24.1 km/h 93 % 1.0 mm
20:57 17.8 °C 16.7 °C 1009.4 hPa ENE 6.4 km/h 24.1 km/h 93 % 1.0 mm
21:07 17.9 °C 16.8 °C 1009.4 hPa NE 9.7 km/h 16.1 km/h 93 % 0.8 mm
21:17 17.9 °C 16.8 °C 1008.7 hPa NE 12.9 km/h 16.1 km/h 93 % 1.0 mm
21:22 17.8 °C 16.7 °C 1009.0 hPa NNE 11.3 km/h 16.1 km/h 93 % 1.0 mm
21:27 17.9 °C 16.6 °C 1008.7 hPa NE 16.1 km/h 19.3 km/h 92 % 1.0 mm
21:32 18.0 °C 16.7 °C 1008.7 hPa NE 9.7 km/h 19.3 km/h 92 % 1.0 mm
21:37 18.0 °C 16.5 °C 1008.7 hPa NNE 14.5 km/h 19.3 km/h 91 % 1.0 mm
21:42 18.1 °C 16.4 °C 1008.4 hPa NE 11.3 km/h 20.9 km/h 90 % 1.0 mm
21:47 18.1 °C 16.4 °C 1008.4 hPa NNE 11.3 km/h 22.5 km/h 90 % 0.8 mm
21:52 18.1 °C 16.4 °C 1008.4 hPa NE 6.4 km/h 22.5 km/h 90 % 0.8 mm
21:57 18.0 °C 16.5 °C 1008.4 hPa NNE 9.7 km/h 22.5 km/h 91 % 0.5 mm
22:02 18.0 °C 16.5 °C 1008.7 hPa NE 4.8 km/h 16.1 km/h 91 % 0.5 mm
22:12 18.1 °C 16.6 °C 1010.0 hPa SSE 8.0 km/h 16.1 km/h 91 % 0.3 mm
22:17 18.1 °C 16.8 °C 1010.7 hPa SW 12.9 km/h 20.9 km/h 92 % 0.0 mm
22:22 18.1 °C 16.8 °C 1010.4 hPa SW 9.7 km/h 20.9 km/h 92 % 0.0 mm
22:27 18.2 °C 16.9 °C 1010.0 hPa South 3.2 km/h 20.9 km/h 92 % 0.0 mm
22:32 18.2 °C 16.5 °C 1009.7 hPa SW 4.8 km/h 22.5 km/h 90 % 0.0 mm
22:42 18.1 °C 16.3 °C 1009.7 hPa SW 3.2 km/h 17.7 km/h 89 % 0.0 mm
22:47 18.0 °C 16.2 °C 1009.7 hPa SW 3.2 km/h 12.9 km/h 89 % 0.0 mm
22:52 17.9 °C 16.2 °C 1009.4 hPa West 4.8 km/h 11.3 km/h 90 % 0.3 mm
23:02 17.7 °C 16.2 °C 1009.4 hPa NE 3.2 km/h 8.0 km/h 91 % 1.0 mm
23:12 17.5 °C 16.2 °C 1009.4 hPa NNE 1.6 km/h 6.4 km/h 92 % 1.3 mm
23:22 17.5 °C 16.2 °C 1009.4 hPa NNE 1.6 km/h 6.4 km/h 92 % 1.5 mm
23:27 17.4 °C 16.3 °C 1009.4 hPa Calm   6.4 km/h 93 % 1.5 mm
23:37 17.4 °C 16.1 °C 1009.4 hPa NE 1.6 km/h 6.4 km/h 92 % 1.5 mm
23:47 17.5 °C 16.2 °C 1009.4 hPa NE 3.2 km/h 8.0 km/h 92 % 1.8 mm
23:52 17.5 °C 16.2 °C 1009.0 hPa NNE 6.4 km/h 8.0 km/h 92 % 1.5 mm
Meteo18
Compliments of Weather Underground - 4 mb

Script developed by  Jim McMurry - jmcmurry@mwt.net Adapted for the template by  Wim van der Kuil - Leuven-Template.eu

You find our weather info also at:

European Weather Network

Weather Underground

Equipment we use:

Weather-station
Davis Vue

Weather-program
Meteohub

Weather-server
Raspberry PI 2 B+

Provider
1 and 1

Davis Vue

Meteohub

Raspberry PI 2 B+

1 and 1